sensor_id;sensor_type;location;lat;lon;timestamp;pressure;altitude;pressure_sealevel;temperature;humidity
17254;BME280;32542;52.832;13.816;2023-03-14T00:02:14;99092.69;;;21.77;45.50
17254;BME280;32542;52.832;13.816;2023-03-14T00:05:19;99081.31;;;21.75;45.56
17254;BME280;32542;52.832;13.816;2023-03-14T00:08:22;99086.84;;;21.72;45.53
17254;BME280;32542;52.832;13.816;2023-03-14T00:11:26;99108.16;;;21.72;45.64
17254;BME280;32542;52.832;13.816;2023-03-14T00:14:29;99114.56;;;21.69;45.57
17254;BME280;32542;52.832;13.816;2023-03-14T00:17:32;99105.84;;;21.67;45.66
17254;BME280;32542;52.832;13.816;2023-03-14T00:20:37;99098.00;;;21.66;45.57
17254;BME280;32542;52.832;13.816;2023-03-14T00:23:41;99078.50;;;21.65;45.63
17254;BME280;32542;52.832;13.816;2023-03-14T00:26:44;99087.59;;;21.63;45.70
17254;BME280;32542;52.832;13.816;2023-03-14T00:29:47;99078.88;;;21.61;45.79
17254;BME280;32542;52.832;13.816;2023-03-14T00:32:50;99066.53;;;21.60;45.65
17254;BME280;32542;52.832;13.816;2023-03-14T00:35:56;99051.50;;;21.59;45.73
17254;BME280;32542;52.832;13.816;2023-03-14T00:38:59;99048.22;;;21.55;45.76
17254;BME280;32542;52.832;13.816;2023-03-14T00:42:02;99035.03;;;21.54;45.74
17254;BME280;32542;52.832;13.816;2023-03-14T00:45:06;99043.97;;;21.53;45.83
17254;BME280;32542;52.832;13.816;2023-03-14T00:48:10;99021.00;;;21.52;45.76
17254;BME280;32542;52.832;13.816;2023-03-14T00:51:14;99011.19;;;21.52;45.71
17254;BME280;32542;52.832;13.816;2023-03-14T00:54:17;99012.28;;;21.50;45.79
17254;BME280;32542;52.832;13.816;2023-03-14T00:57:20;99021.22;;;21.49;45.76
17254;BME280;32542;52.832;13.816;2023-03-14T01:00:23;99016.97;;;21.46;45.86
17254;BME280;32542;52.832;13.816;2023-03-14T01:03:26;99018.81;;;21.46;45.83
17254;BME280;32542;52.832;13.816;2023-03-14T01:06:30;99011.06;;;21.43;45.92
17254;BME280;32542;52.832;13.816;2023-03-14T01:09:33;98997.03;;;21.41;45.99
17254;BME280;32542;52.832;13.816;2023-03-14T01:12:37;98988.31;;;21.39;46.04
17254;BME280;32542;52.832;13.816;2023-03-14T01:15:39;98989.25;;;21.38;45.99
17254;BME280;32542;52.832;13.816;2023-03-14T01:18:46;98990.25;;;21.37;46.05
17254;BME280;32542;52.832;13.816;2023-03-14T01:21:51;98982.38;;;21.35;46.09
17254;BME280;32542;52.832;13.816;2023-03-14T01:24:54;98971.84;;;21.34;46.03
17254;BME280;32542;52.832;13.816;2023-03-14T01:27:57;98974.50;;;21.34;45.96
17254;BME280;32542;52.832;13.816;2023-03-14T01:31:03;99003.78;;;21.34;46.01
17254;BME280;32542;52.832;13.816;2023-03-14T01:34:06;99018.09;;;21.33;46.01
17254;BME280;32542;52.832;13.816;2023-03-14T01:37:10;99019.03;;;21.32;46.12
17254;BME280;32542;52.832;13.816;2023-03-14T01:40:14;99046.63;;;21.31;46.17
17254;BME280;32542;52.832;13.816;2023-03-14T01:43:19;99040.59;;;21.29;46.11
17254;BME280;32542;52.832;13.816;2023-03-14T01:46:30;99044.19;;;21.28;46.16
17254;BME280;32542;52.832;13.816;2023-03-14T01:49:35;99056.78;;;21.26;46.25
17254;BME280;32542;52.832;13.816;2023-03-14T01:52:47;99054.25;;;21.24;46.07
17254;BME280;32542;52.832;13.816;2023-03-14T01:55:55;99064.03;;;21.24;46.16
17254;BME280;32542;52.832;13.816;2023-03-14T01:59:01;99063.31;;;21.22;46.18
17254;BME280;32542;52.832;13.816;2023-03-14T02:02:07;99067.91;;;21.20;46.31
17254;BME280;32542;52.832;13.816;2023-03-14T02:05:15;99075.75;;;21.21;46.29
17254;BME280;32542;52.832;13.816;2023-03-14T02:08:26;99076.75;;;21.20;46.26
17254;BME280;32542;52.832;13.816;2023-03-14T02:11:34;99053.63;;;21.21;46.29
17254;BME280;32542;52.832;13.816;2023-03-14T02:14:46;99048.28;;;21.21;46.23
17254;BME280;32542;52.832;13.816;2023-03-14T02:18:13;99037.63;;;21.21;46.26
17254;BME280;32542;52.832;13.816;2023-03-14T02:21:23;99038.63;;;21.20;46.33
17254;BME280;32542;52.832;13.816;2023-03-14T02:24:35;99028.09;;;21.18;46.39
17254;BME280;32542;52.832;13.816;2023-03-14T02:27:47;99025.53;;;21.17;46.38
17254;BME280;32542;52.832;13.816;2023-03-14T02:30:50;99026.53;;;21.16;46.36
17254;BME280;32542;52.832;13.816;2023-03-14T02:33:55;99018.66;;;21.14;46.34
17254;BME280;32542;52.832;13.816;2023-03-14T02:37:00;99020.47;;;21.14;46.46
17254;BME280;32542;52.832;13.816;2023-03-14T02:40:04;98997.47;;;21.13;46.47
17254;BME280;32542;52.832;13.816;2023-03-14T02:43:10;99002.78;;;21.13;46.34
17254;BME280;32542;52.832;13.816;2023-03-14T02:46:20;98999.41;;;21.11;46.46
17254;BME280;32542;52.832;13.816;2023-03-14T02:49:25;98991.31;;;21.12;46.30
17254;BME280;32542;52.832;13.816;2023-03-14T02:52:31;98986.81;;;21.13;46.26
17254;BME280;32542;52.832;13.816;2023-03-14T02:55:34;98982.34;;;21.13;46.19
17254;BME280;32542;52.832;13.816;2023-03-14T02:58:45;98974.38;;;21.13;46.14
17254;BME280;32542;52.832;13.816;2023-03-14T03:02:07;98974.38;;;21.13;46.24
17254;BME280;32542;52.832;13.816;2023-03-14T03:05:10;98970.03;;;21.12;46.28
17254;BME280;32542;52.832;13.816;2023-03-14T03:08:13;98963.94;;;21.10;46.39
17254;BME280;32542;52.832;13.816;2023-03-14T03:11:16;98957.81;;;21.10;46.18
17254;BME280;32542;52.832;13.816;2023-03-14T03:14:20;98936.38;;;21.11;46.33
17254;BME280;32542;52.832;13.816;2023-03-14T03:17:24;98934.22;;;21.16;46.14
17254;BME280;32542;52.832;13.816;2023-03-14T03:20:27;98927.19;;;21.26;46.07
17254;BME280;32542;52.832;13.816;2023-03-14T03:23:30;98922.97;;;21.35;46.03
17254;BME280;32542;52.832;13.816;2023-03-14T03:26:33;98909.16;;;21.41;45.66
17254;BME280;32542;52.832;13.816;2023-03-14T03:29:40;98899.94;;;21.45;45.52
17254;BME280;32542;52.832;13.816;2023-03-14T03:32:43;98905.16;;;21.46;45.52
17254;BME280;32542;52.832;13.816;2023-03-14T03:35:49;98898.50;;;21.52;45.60
17254;BME280;32542;52.832;13.816;2023-03-14T03:38:58;98904.41;;;21.55;45.44
17254;BME280;32542;52.832;13.816;2023-03-14T03:42:01;98904.06;;;21.60;45.36
17254;BME280;32542;52.832;13.816;2023-03-14T03:45:07;98905.84;;;21.59;45.25
17254;BME280;32542;52.832;13.816;2023-03-14T03:48:16;98923.66;;;21.59;45.27
17254;BME280;32542;52.832;13.816;2023-03-14T03:51:19;98915.66;;;21.59;45.35
17254;BME280;32542;52.832;13.816;2023-03-14T03:54:22;98910.09;;;21.62;45.21
17254;BME280;32542;52.832;13.816;2023-03-14T03:57:25;98926.66;;;21.65;45.23
17254;BME280;32542;52.832;13.816;2023-03-14T04:00:29;98920.25;;;21.68;45.10
17254;BME280;32542;52.832;13.816;2023-03-14T04:03:34;98925.56;;;21.68;45.13
17254;BME280;32542;52.832;13.816;2023-03-14T04:06:40;98913.97;;;21.69;45.24
17254;BME280;32542;52.832;13.816;2023-03-14T04:09:44;98918.19;;;21.71;45.11
17254;BME280;32542;52.832;13.816;2023-03-14T04:13:06;98904.63;;;21.74;45.04
17254;BME280;32542;52.832;13.816;2023-03-14T04:16:15;98892.88;;;21.77;44.96
17254;BME280;32542;52.832;13.816;2023-03-14T04:19:20;98914.19;;;21.77;44.98
17254;BME280;32542;52.832;13.816;2023-03-14T04:22:24;98931.03;;;21.77;44.98
17254;BME280;32542;52.832;13.816;2023-03-14T04:25:28;98905.94;;;21.80;44.90
17254;BME280;32542;52.832;13.816;2023-03-14T04:28:33;98908.38;;;21.83;44.88
17254;BME280;32542;52.832;13.816;2023-03-14T04:31:40;98912.75;;;21.84;44.81
17254;BME280;32542;52.832;13.816;2023-03-14T04:34:44;98895.78;;;21.85;44.76
17254;BME280;32542;52.832;13.816;2023-03-14T04:37:47;98888.50;;;21.87;44.76
17254;BME280;32542;52.832;13.816;2023-03-14T04:40:51;98898.94;;;21.90;44.71
17254;BME280;32542;52.832;13.816;2023-03-14T04:43:57;98898.78;;;21.92;44.71
17254;BME280;32542;52.832;13.816;2023-03-14T04:47:03;98896.97;;;21.92;44.64
17254;BME280;32542;52.832;13.816;2023-03-14T04:50:07;98886.31;;;21.92;44.59
17254;BME280;32542;52.832;13.816;2023-03-14T04:53:10;98882.66;;;21.93;44.60
17254;BME280;32542;52.832;13.816;2023-03-14T04:56:16;98874.56;;;21.95;44.56
17254;BME280;32542;52.832;13.816;2023-03-14T04:59:19;98872.72;;;21.95;44.59
17254;BME280;32542;52.832;13.816;2023-03-14T05:02:25;98864.72;;;21.95;44.49
17254;BME280;32542;52.832;13.816;2023-03-14T05:05:46;98859.41;;;21.95;44.57
17254;BME280;32542;52.832;13.816;2023-03-14T05:09:18;98852.25;;;21.96;44.63
17254;BME280;32542;52.832;13.816;2023-03-14T05:12:37;98844.97;;;21.98;44.61
17254;BME280;32542;52.832;13.816;2023-03-14T05:16:04;98850.78;;;22.03;44.65
17254;BME280;32542;52.832;13.816;2023-03-14T05:19:21;98850.28;;;22.09;44.30
17254;BME280;32542;52.832;13.816;2023-03-14T05:22:43;98856.78;;;22.16;44.21
17254;BME280;32542;52.832;13.816;2023-03-14T05:25:59;98848.41;;;22.20;44.14
17254;BME280;32542;52.832;13.816;2023-03-14T05:29:14;98836.50;;;22.24;44.01
17254;BME280;32542;52.832;13.816;2023-03-14T05:32:26;98839.88;;;22.26;43.96
17254;BME280;32542;52.832;13.816;2023-03-14T05:35:49;98831.03;;;22.26;44.04
17254;BME280;32542;52.832;13.816;2023-03-14T05:39:10;98825.13;;;22.22;44.09
17254;BME280;32542;52.832;13.816;2023-03-14T05:42:33;98831.56;;;22.20;44.09
17254;BME280;32542;52.832;13.816;2023-03-14T05:46:05;98830.72;;;22.19;44.11
17254;BME280;32542;52.832;13.816;2023-03-14T05:49:34;98825.38;;;22.19;44.07
17254;BME280;32542;52.832;13.816;2023-03-14T05:52:57;98830.94;;;22.16;44.16
17254;BME280;32542;52.832;13.816;2023-03-14T05:56:11;98829.28;;;22.15;44.19
17254;BME280;32542;52.832;13.816;2023-03-14T05:59:32;98838.38;;;22.13;44.20
17254;BME280;32542;52.832;13.816;2023-03-14T06:02:44;98843.84;;;22.11;44.44
17254;BME280;32542;52.832;13.816;2023-03-14T06:05:56;98836.81;;;22.10;44.42
17254;BME280;32542;52.832;13.816;2023-03-14T06:09:00;98843.00;;;22.11;44.49
17254;BME280;32542;52.832;13.816;2023-03-14T06:12:06;98842.84;;;22.12;44.33
17254;BME280;32542;52.832;13.816;2023-03-14T06:15:15;98829.53;;;22.12;44.47
17254;BME280;32542;52.832;13.816;2023-03-14T06:18:21;98836.56;;;22.13;44.33
17254;BME280;32542;52.832;13.816;2023-03-14T06:21:25;98832.19;;;22.12;44.29
17254;BME280;32542;52.832;13.816;2023-03-14T06:24:29;98834.03;;;22.12;44.33
17254;BME280;32542;52.832;13.816;2023-03-14T06:27:34;98829.53;;;22.12;44.43
17254;BME280;32542;52.832;13.816;2023-03-14T06:30:37;98849.88;;;22.13;44.39
17254;BME280;32542;52.832;13.816;2023-03-14T06:33:42;98853.41;;;22.14;44.33
17254;BME280;32542;52.832;13.816;2023-03-14T06:36:45;98850.84;;;22.12;44.33
17254;BME280;32542;52.832;13.816;2023-03-14T06:39:50;98850.84;;;22.12;44.28
17254;BME280;32542;52.832;13.816;2023-03-14T06:43:09;98856.91;;;22.14;44.17
17254;BME280;32542;52.832;13.816;2023-03-14T06:46:15;98855.09;;;22.15;44.25
17254;BME280;32542;52.832;13.816;2023-03-14T06:49:18;98846.22;;;22.14;44.12
17254;BME280;32542;52.832;13.816;2023-03-14T06:52:23;98841.75;;;22.15;44.23
17254;BME280;32542;52.832;13.816;2023-03-14T06:55:28;98829.28;;;22.15;44.60
17254;BME280;32542;52.832;13.816;2023-03-14T06:58:31;98853.00;;;22.18;44.74
17254;BME280;32542;52.832;13.816;2023-03-14T07:01:35;98859.19;;;22.19;45.02
17254;BME280;32542;52.832;13.816;2023-03-14T07:04:41;98857.50;;;22.18;44.90
17254;BME280;32542;52.832;13.816;2023-03-14T07:07:44;98861.00;;;22.18;45.03
17254;BME280;32542;52.832;13.816;2023-03-14T07:10:49;98863.41;;;22.21;45.02
17254;BME280;32542;52.832;13.816;2023-03-14T07:13:52;98865.84;;;22.24;45.15
17254;BME280;32542;52.832;13.816;2023-03-14T07:16:55;98871.16;;;22.24;45.13
17254;BME280;32542;52.832;13.816;2023-03-14T07:19:58;98864.97;;;22.24;45.16
17254;BME280;32542;52.832;13.816;2023-03-14T07:23:02;98870.47;;;22.22;45.25
17254;BME280;32542;52.832;13.816;2023-03-14T07:26:13;98884.75;;;22.21;45.37
17254;BME280;32542;52.832;13.816;2023-03-14T07:29:22;98878.44;;;22.22;45.44
17254;BME280;32542;52.832;13.816;2023-03-14T07:32:26;98894.31;;;22.24;45.40
17254;BME280;32542;52.832;13.816;2023-03-14T07:35:30;98891.66;;;22.24;45.42
17254;BME280;32542;52.832;13.816;2023-03-14T07:38:33;98894.16;;;22.25;45.51
17254;BME280;32542;52.832;13.816;2023-03-14T07:41:55;98895.03;;;22.26;45.49
17254;BME280;32542;52.832;13.816;2023-03-14T07:45:24;98891.38;;;22.27;45.44
17254;BME280;32542;52.832;13.816;2023-03-14T07:48:29;98892.22;;;22.27;45.29
17254;BME280;32542;52.832;13.816;2023-03-14T07:51:31;98894.88;;;22.27;45.44
17254;BME280;32542;52.832;13.816;2023-03-14T07:54:34;98894.03;;;22.27;45.35
17254;BME280;32542;52.832;13.816;2023-03-14T07:57:38;98900.94;;;22.29;45.22
17254;BME280;32542;52.832;13.816;2023-03-14T08:00:41;98890.28;;;22.29;45.21
17254;BME280;32542;52.832;13.816;2023-03-14T08:03:45;98896.47;;;22.30;45.29
17254;BME280;32542;52.832;13.816;2023-03-14T08:06:48;98906.28;;;22.29;45.25
17254;BME280;32542;52.832;13.816;2023-03-14T08:09:51;98897.31;;;22.30;45.20
17254;BME280;32542;52.832;13.816;2023-03-14T08:12:56;98907.97;;;22.30;45.10
17254;BME280;32542;52.832;13.816;2023-03-14T08:15:59;98897.31;;;22.30;45.24
17254;BME280;32542;52.832;13.816;2023-03-14T08:19:02;98900.69;;;22.32;45.18
17254;BME280;32542;52.832;13.816;2023-03-14T08:22:05;98902.66;;;22.30;45.09
17254;BME280;32542;52.832;13.816;2023-03-14T08:25:08;98894.75;;;22.29;45.10
17254;BME280;32542;52.832;13.816;2023-03-14T08:28:13;98902.66;;;22.30;45.05
17254;BME280;32542;52.832;13.816;2023-03-14T08:31:16;98886.38;;;22.33;45.00
17254;BME280;32542;52.832;13.816;2023-03-14T08:34:19;98893.13;;;22.37;44.91
17254;BME280;32542;52.832;13.816;2023-03-14T08:37:21;98894.84;;;22.38;44.96
17254;BME280;32542;52.832;13.816;2023-03-14T08:40:27;98892.16;;;22.38;44.88
17254;BME280;32542;52.832;13.816;2023-03-14T08:43:31;98886.97;;;22.37;44.88
17254;BME280;32542;52.832;13.816;2023-03-14T08:46:35;98904.94;;;22.35;44.91
17254;BME280;32542;52.832;13.816;2023-03-14T08:49:39;98898.03;;;22.32;44.94
17254;BME280;32542;52.832;13.816;2023-03-14T08:52:42;98900.69;;;22.32;44.94
17254;BME280;32542;52.832;13.816;2023-03-14T08:55:45;98894.38;;;22.33;44.83
17254;BME280;32542;52.832;13.816;2023-03-14T08:58:49;98897.88;;;22.34;44.91
17254;BME280;32542;52.832;13.816;2023-03-14T09:01:52;98898.75;;;22.34;44.77
17254;BME280;32542;52.832;13.816;2023-03-14T09:04:56;98896.22;;;22.33;44.90
17254;BME280;32542;52.832;13.816;2023-03-14T09:07:58;98897.88;;;22.34;44.83
17254;BME280;32542;52.832;13.816;2023-03-14T09:11:01;98906.59;;;22.36;44.80
17254;BME280;32542;52.832;13.816;2023-03-14T09:14:06;98905.75;;;22.35;44.75
17254;BME280;32542;52.832;13.816;2023-03-14T09:17:08;98911.94;;;22.36;44.77
17254;BME280;32542;52.832;13.816;2023-03-14T09:20:11;98903.09;;;22.35;44.79
17254;BME280;32542;52.832;13.816;2023-03-14T09:23:16;98905.66;;;22.37;44.73
17254;BME280;32542;52.832;13.816;2023-03-14T09:26:19;98900.41;;;22.35;44.75
17254;BME280;32542;52.832;13.816;2023-03-14T09:29:23;98890.75;;;22.34;44.70
17254;BME280;32542;52.832;13.816;2023-03-14T09:32:26;98889.75;;;22.35;44.71
17254;BME280;32542;52.832;13.816;2023-03-14T09:35:29;98888.94;;;22.35;44.67
17254;BME280;32542;52.832;13.816;2023-03-14T09:38:32;98889.75;;;22.35;44.70
17254;BME280;32542;52.832;13.816;2023-03-14T09:41:37;98893.41;;;22.34;44.65
17254;BME280;32542;52.832;13.816;2023-03-14T09:44:53;98887.09;;;22.35;44.76
17254;BME280;32542;52.832;13.816;2023-03-14T09:47:58;98886.38;;;22.33;44.82
17254;BME280;32542;52.832;13.816;2023-03-14T09:51:05;98878.25;;;22.35;44.65
17254;BME280;32542;52.832;13.816;2023-03-14T09:54:23;98890.88;;;22.33;44.65
17254;BME280;32542;52.832;13.816;2023-03-14T09:57:29;98885.66;;;22.31;44.75
17254;BME280;32542;52.832;13.816;2023-03-14T10:00:36;98871.50;;;22.31;44.86
17254;BME280;32542;52.832;13.816;2023-03-14T10:03:39;98883.00;;;22.31;44.69
17254;BME280;32542;52.832;13.816;2023-03-14T10:06:43;98886.66;;;22.30;44.71
17254;BME280;32542;52.832;13.816;2023-03-14T10:09:47;98891.00;;;22.31;44.66
17254;BME280;32542;52.832;13.816;2023-03-14T10:12:56;98886.66;;;22.30;44.65
17254;BME280;32542;52.832;13.816;2023-03-14T10:16:02;98896.47;;;22.30;44.76
17254;BME280;32542;52.832;13.816;2023-03-14T10:19:09;98896.47;;;22.30;44.77
17254;BME280;32542;52.832;13.816;2023-03-14T10:22:14;98897.31;;;22.30;44.71
17254;BME280;32542;52.832;13.816;2023-03-14T10:25:26;98899.13;;;22.30;44.79
17254;BME280;32542;52.832;13.816;2023-03-14T10:28:31;98908.09;;;22.29;44.60
17254;BME280;32542;52.832;13.816;2023-03-14T10:31:47;98897.41;;;22.29;44.79
17254;BME280;32542;52.832;13.816;2023-03-14T10:38:27;98902.88;;;22.27;44.88
17254;BME280;32542;52.832;13.816;2023-03-14T10:41:31;98902.88;;;22.27;44.76
17254;BME280;32542;52.832;13.816;2023-03-14T10:44:35;98912.69;;;22.27;44.78
17254;BME280;32542;52.832;13.816;2023-03-14T10:47:48;98904.84;;;22.25;44.78
17254;BME280;32542;52.832;13.816;2023-03-14T10:50:56;98908.50;;;22.24;44.82
17254;BME280;32542;52.832;13.816;2023-03-14T10:54:00;98894.16;;;22.25;44.75
17254;BME280;32542;52.832;13.816;2023-03-14T10:57:04;98902.88;;;22.27;44.80
17254;BME280;32542;52.832;13.816;2023-03-14T11:00:14;98902.66;;;22.30;44.78
17254;BME280;32542;52.832;13.816;2023-03-14T11:03:20;98911.34;;;22.32;44.71
17254;BME280;32542;52.832;13.816;2023-03-14T11:06:31;98908.69;;;22.32;44.50
17254;BME280;32542;52.832;13.816;2023-03-14T11:09:42;98916.81;;;22.31;44.62
17254;BME280;32542;52.832;13.816;2023-03-14T11:12:55;98921.16;;;22.32;44.56
17254;BME280;32542;52.832;13.816;2023-03-14T11:16:09;98914.16;;;22.31;44.68
17254;BME280;32542;52.832;13.816;2023-03-14T11:19:22;98919.50;;;22.31;44.72
17254;BME280;32542;52.832;13.816;2023-03-14T11:22:37;98911.50;;;22.31;44.63
17254;BME280;32542;52.832;13.816;2023-03-14T11:25:47;98922.28;;;22.29;44.67
17254;BME280;32542;52.832;13.816;2023-03-14T11:28:57;98915.00;;;22.31;44.56
17254;BME280;32542;52.832;13.816;2023-03-14T11:32:02;98910.66;;;22.30;44.56
17254;BME280;32542;52.832;13.816;2023-03-14T11:35:17;98915.97;;;22.30;44.62
17254;BME280;32542;52.832;13.816;2023-03-14T11:38:30;98910.75;;;22.29;44.69
17254;BME280;32542;52.832;13.816;2023-03-14T11:41:39;98910.75;;;22.29;44.70
17254;BME280;32542;52.832;13.816;2023-03-14T11:44:44;98901.94;;;22.28;44.60
17254;BME280;32542;52.832;13.816;2023-03-14T11:47:52;98903.59;;;22.29;44.75
17254;BME280;32542;52.832;13.816;2023-03-14T11:50:59;98904.59;;;22.28;44.66
17254;BME280;32542;52.832;13.816;2023-03-14T11:54:11;98902.88;;;22.27;44.68
17254;BME280;32542;52.832;13.816;2023-03-14T11:57:17;98892.22;;;22.27;44.63
17254;BME280;32542;52.832;13.816;2023-03-14T12:00:22;98893.06;;;22.28;44.50
17254;BME280;32542;52.832;13.816;2023-03-14T12:03:31;98893.06;;;22.28;44.70
17254;BME280;32542;52.832;13.816;2023-03-14T12:06:44;98891.38;;;22.27;44.55
17254;BME280;32542;52.832;13.816;2023-03-14T12:09:49;98892.22;;;22.27;44.73
17254;BME280;32542;52.832;13.816;2023-03-14T12:12:53;98894.16;;;22.25;44.68
17254;BME280;32542;52.832;13.816;2023-03-14T12:15:57;98890.66;;;22.25;44.62
17254;BME280;32542;52.832;13.816;2023-03-14T12:19:29;98886.19;;;22.25;44.72
17254;BME280;32542;52.832;13.816;2023-03-14T12:22:35;98894.16;;;22.25;44.67
17254;BME280;32542;52.832;13.816;2023-03-14T12:25:38;98892.50;;;22.24;44.65
17254;BME280;32542;52.832;13.816;2023-03-14T12:28:43;98888.13;;;22.23;44.58
17254;BME280;32542;52.832;13.816;2023-03-14T12:31:48;98884.75;;;22.21;44.90
17254;BME280;32542;52.832;13.816;2023-03-14T12:34:51;98889.34;;;22.19;44.84
17254;BME280;32542;52.832;13.816;2023-03-14T12:37:56;98902.81;;;22.18;44.72
17254;BME280;32542;52.832;13.816;2023-03-14T12:41:06;98892.16;;;22.18;44.71
17254;BME280;32542;52.832;13.816;2023-03-14T12:44:42;98900.97;;;22.18;44.73
17254;BME280;32542;52.832;13.816;2023-03-14T12:48:06;98908.97;;;22.18;44.67
17254;BME280;32542;52.832;13.816;2023-03-14T12:51:13;98903.66;;;22.18;44.76
17254;BME280;32542;52.832;13.816;2023-03-14T12:54:33;98898.22;;;22.20;44.67
17254;BME280;32542;52.832;13.816;2023-03-14T12:57:45;98890.06;;;22.21;44.71
17254;BME280;32542;52.832;13.816;2023-03-14T13:00:54;98889.13;;;22.22;44.73
17254;BME280;32542;52.832;13.816;2023-03-14T13:04:03;98890.78;;;22.23;44.55
17254;BME280;32542;52.832;13.816;2023-03-14T13:07:11;98874.78;;;22.23;44.63
17254;BME280;32542;52.832;13.816;2023-03-14T13:10:21;98880.84;;;22.25;44.53
17254;BME280;32542;52.832;13.816;2023-03-14T13:13:25;98878.91;;;22.27;44.62
17254;BME280;32542;52.832;13.816;2023-03-14T13:16:29;98865.56;;;22.27;44.52
17254;BME280;32542;52.832;13.816;2023-03-14T13:19:33;98859.28;;;22.28;44.45
17254;BME280;32542;52.832;13.816;2023-03-14T13:22:36;98853.09;;;22.28;44.51
17254;BME280;32542;52.832;13.816;2023-03-14T13:25:41;98852.94;;;22.29;44.60
17254;BME280;32542;52.832;13.816;2023-03-14T13:28:44;98849.31;;;22.30;44.38
17254;BME280;32542;52.832;13.816;2023-03-14T13:31:50;98844.84;;;22.31;44.38
17254;BME280;32542;52.832;13.816;2023-03-14T13:34:56;98833.31;;;22.30;44.50
17254;BME280;32542;52.832;13.816;2023-03-14T13:38:00;98835.84;;;22.32;44.52
17254;BME280;32542;52.832;13.816;2023-03-14T13:41:14;98830.38;;;22.33;44.46
17254;BME280;32542;52.832;13.816;2023-03-14T13:44:19;98837.41;;;22.34;44.20
17254;BME280;32542;52.832;13.816;2023-03-14T13:47:26;98832.06;;;22.34;44.30
17254;BME280;32542;52.832;13.816;2023-03-14T13:50:29;98829.41;;;22.34;44.27
17254;BME280;32542;52.832;13.816;2023-03-14T13:53:32;98820.41;;;22.35;44.21
17254;BME280;32542;52.832;13.816;2023-03-14T13:56:36;98827.47;;;22.36;44.25
17254;BME280;32542;52.832;13.816;2023-03-14T13:59:42;98826.59;;;22.36;44.26
17254;BME280;32542;52.832;13.816;2023-03-14T14:02:44;98825.75;;;22.35;44.24
17254;BME280;32542;52.832;13.816;2023-03-14T14:05:47;98832.94;;;22.35;44.26
17254;BME280;32542;52.832;13.816;2023-03-14T14:08:50;98824.94;;;22.35;44.22
17254;BME280;32542;52.832;13.816;2023-03-14T14:11:56;98822.25;;;22.35;44.38
17254;BME280;32542;52.832;13.816;2023-03-14T14:15:18;98825.91;;;22.34;44.35
17254;BME280;32542;52.832;13.816;2023-03-14T14:18:26;98825.75;;;22.35;44.46
17254;BME280;32542;52.832;13.816;2023-03-14T14:21:30;98815.94;;;22.36;44.53
17254;BME280;32542;52.832;13.816;2023-03-14T14:24:36;98826.59;;;22.36;44.33
17254;BME280;32542;52.832;13.816;2023-03-14T14:27:42;98813.28;;;22.36;44.32
17254;BME280;32542;52.832;13.816;2023-03-14T14:30:45;98816.09;;;22.34;44.35
17254;BME280;32542;52.832;13.816;2023-03-14T14:33:56;98818.75;;;22.34;44.44
17254;BME280;32542;52.832;13.816;2023-03-14T14:37:00;98809.03;;;22.33;44.51
17254;BME280;32542;52.832;13.816;2023-03-14T14:40:07;98806.38;;;22.33;44.49
17254;BME280;32542;52.832;13.816;2023-03-14T14:43:16;98803.72;;;22.33;44.43
17254;BME280;32542;52.832;13.816;2023-03-14T14:46:20;98799.38;;;22.32;44.47
17254;BME280;32542;52.832;13.816;2023-03-14T14:49:28;98809.03;;;22.33;44.66
17254;BME280;32542;52.832;13.816;2023-03-14T14:52:36;98803.84;;;22.32;44.52
17254;BME280;32542;52.832;13.816;2023-03-14T14:55:41;98798.50;;;22.32;44.73
17254;BME280;32542;52.832;13.816;2023-03-14T14:58:46;98796.84;;;22.31;44.69
17254;BME280;32542;52.832;13.816;2023-03-14T15:01:49;98788.94;;;22.29;44.61
17254;BME280;32542;52.832;13.816;2023-03-14T15:04:53;98791.75;;;22.28;44.76
17254;BME280;32542;52.832;13.816;2023-03-14T15:07:56;98801.56;;;22.27;44.80
17254;BME280;32542;52.832;13.816;2023-03-14T15:10:59;98811.38;;;22.27;44.84
17254;BME280;32542;52.832;13.816;2023-03-14T15:14:03;98814.91;;;22.27;44.85
17254;BME280;32542;52.832;13.816;2023-03-14T15:17:10;98821.22;;;22.26;44.93
17254;BME280;32542;52.832;13.816;2023-03-14T15:20:15;98825.56;;;22.27;44.92
17254;BME280;32542;52.832;13.816;2023-03-14T15:23:20;98835.53;;;22.25;44.89
17254;BME280;32542;52.832;13.816;2023-03-14T15:26:26;98840.84;;;22.25;44.94
17254;BME280;32542;52.832;13.816;2023-03-14T15:29:30;98855.88;;;22.26;45.03
17254;BME280;32542;52.832;13.816;2023-03-14T15:32:33;98929.56;;;22.27;45.01
17254;BME280;32542;52.832;13.816;2023-03-14T15:35:37;99022.88;;;22.27;44.97
17254;BME280;32542;52.832;13.816;2023-03-14T15:38:40;99062.00;;;22.27;44.98
17254;BME280;32542;52.832;13.816;2023-03-14T15:41:43;99092.91;;;22.29;44.98
17254;BME280;32542;52.832;13.816;2023-03-14T15:44:47;99119.59;;;22.29;45.06
17254;BME280;32542;52.832;13.816;2023-03-14T15:47:50;99169.28;;;22.08;42.71
17254;BME280;32542;52.832;13.816;2023-03-14T15:50:53;99200.13;;;21.77;41.24
17254;BME280;32542;52.832;13.816;2023-03-14T15:53:56;99240.13;;;21.54;41.52
17254;BME280;32542;52.832;13.816;2023-03-14T15:56:59;99249.69;;;21.56;41.45
17254;BME280;32542;52.832;13.816;2023-03-14T16:00:04;99279.38;;;21.63;41.95
17254;BME280;32542;52.832;13.816;2023-03-14T16:03:08;99296.59;;;21.70;42.31
17254;BME280;32542;52.832;13.816;2023-03-14T16:06:12;99302.09;;;21.80;42.63
17254;BME280;32542;52.832;13.816;2023-03-14T16:09:15;99310.91;;;21.93;42.76
17254;BME280;32542;52.832;13.816;2023-03-14T16:12:18;99325.22;;;22.03;42.79
17254;BME280;32542;52.832;13.816;2023-03-14T16:15:22;99320.03;;;22.12;42.92
17254;BME280;32542;52.832;13.816;2023-03-14T16:18:28;99338.00;;;22.21;43.05
17254;BME280;32542;52.832;13.816;2023-03-14T16:21:31;99361.16;;;22.32;42.87